This is the latest recevied weather packets stored in our database for station/object KK7HEZ. If no packets are shown the sender has not sent any weather packets the latest 1 day(s).
| Time | Temp. | Humidity | Pressure | Rain* | Wind** | Luminosity | Snow |
|---|---|---|---|---|---|---|---|
| 1778029086 | 19.44° C | 72% | 1015.6 hPa | 0 mm | 0 m/s | 227 W/m² | - |
| 1778028783 | 18.33° C | 74% | 1015.9 hPa | 0 mm | 0 m/s | 244 W/m² | - |
| 1778028479 | 17.78° C | 76% | 1015.8 hPa | 0 mm | 0 m/s | 253 W/m² | - |
| 1778028177 | 19.44° C | 73% | 1015.9 hPa | 0 mm | 0 m/s | 205 W/m² | - |
| 1778027873 | 19.44° C | 73% | 1015.9 hPa | 0 mm | 0 m/s | 208 W/m² | - |
| 1778027569 | 20° C | 71% | 1015.6 hPa | 0 mm | 0 m/s | 327 W/m² | - |
| 1778027265 | 19.44° C | 70% | 1015.9 hPa | 0 mm | 0 m/s | 339 W/m² | - |
| 1778026962 | 18.89° C | 73% | 1015.7 hPa | 0 mm | 0 m/s | 339 W/m² | - |
| 1778026658 | 18.33° C | 75% | 1016.1 hPa | 0 mm | 0 m/s | 275 W/m² | - |
| 1778026355 | 18.89° C | 74% | 1016 hPa | 0 mm | 0.45 m/s, 165° | 362 W/m² | - |
| 1778026052 | 18.89° C | 74% | 1016.2 hPa | 0 mm | 0.89 m/s, 174° | 412 W/m² | - |
| 1778025750 | 18.89° C | 74% | 1016 hPa | 0 mm | 0.45 m/s, 166° | 432 W/m² | - |
| 1778025446 | 18.33° C | 74% | 1016 hPa | 0 mm | 0.45 m/s, 192° | 403 W/m² | - |
| 1778025144 | 17.78° C | 77% | 1016.2 hPa | 0 mm | 0 m/s | 413 W/m² | - |
| 1778024841 | 18.89° C | 75% | 1016.4 hPa | 0 mm | 0.45 m/s, 171° | 419 W/m² | - |
| 1778024538 | 17.78° C | 75% | 1016.2 hPa | 0 mm | 0 m/s | 457 W/m² | - |
| 1778024234 | 17.78° C | 77% | 1016.2 hPa | 0 mm | 1.34 m/s, 219° | 115 W/m² | - |
| 1778023933 | 18.33° C | 76% | 1016.3 hPa | 0 mm | 0.89 m/s, 230° | 488 W/m² | - |
| 1778023630 | 17.78° C | 76% | 1016.6 hPa | 0 mm | 0 m/s | 478 W/m² | - |
| 1778023327 | 17.78° C | 77% | 1016.5 hPa | 0 mm | 1.34 m/s, 237° | 297 W/m² | - |
| 1778023024 | 17.22° C | 76% | 1016.3 hPa | 0 mm | 0.45 m/s, 158° | 399 W/m² | - |
| 1778022723 | 17.78° C | 78% | 1016.6 hPa | 0 mm | 0 m/s | 451 W/m² | - |
| 1778022421 | 17.22° C | 79% | 1016.6 hPa | 0 mm | 0 m/s | 239 W/m² | - |
| 1778022117 | 17.22° C | 79% | 1016.5 hPa | 0 mm | 0 m/s | 95 W/m² | - |
| 1778021813 | 17.22° C | 78% | 1016.5 hPa | 0 mm | 0 m/s | 89 W/m² | - |
* Rain latest hour (hover to see other rain measurements)
** Current wind speed in m/s (hover to see current wind gust speed)